Weerspreuk van de dag: Als in januari de muggen zwermen,dan kun je in maart de oren wermen.
Het weer levert geen direct gevaar op.    Er zijn geen waarschuwingen afgegeven.


Onweer radar Meer informatie blitzortung!


Regen radar Meer informatie rain snow radar


Bekijk deze sites ook eens:

FPL Automotive (TIP)

Autostekkers.nl (TIP)

Over Luyksgestel

De Kempen, mijn omgeving

BOL.com

Weerstation Noordbergum

Inktweb

Weerstation Hapert

Parfumswinkel TIP

Weerstation Hoogeloon

Weerstation Son&Breugel

Weerstation Castaert

Smartphonehoesjes

Weerstation Tilburg Reeshof

Weerstation Scheulder

Weerverwachting Samos

Samos actueel

Weerwoord (forum)

Griekenlandforum

Vakantie naar Samos

Winterzon

Canon

Lampen koopjeshoek

Wolven in Nederland



METAR rapporten vliegvelden

   
EBAW - Antwerp
Gewijzigd: 18-01-2019 14:50
Nevel, Gedeeltelijk bewolkt  
Nevel, Gedeeltelijk bewolkt  
   Wind: OZO 13 km/h
Wind: OZO 13 km/h
Temperatuur: 2°C
Voelt als: -2°C
Dauwpunt: 2°C
Vochtigheid: 100%
Barometer: 1020 hPa
Bewolking: Gedeeltelijk bewolkt
Zicht: 5 km
Bewolking: Gedeeltelijk bewolkt 600 ft
EBAW 181350Z 12007KT 5000 BR SCT006 02/02 Q1020 TEMPO 3000 BR BKN005
EBLG - Liège
Gewijzigd: 18-01-2019 14:50
Licht bewolkt  
Licht bewolkt  
   Wind: Zuiden 7.4 km/h
Wind: Zuiden 7.4 km/h
Temperatuur: 3°C
Voelt als: 1°C
Dauwpunt: -2°C
Vochtigheid: 70%
Barometer: 1019 hPa
Bewolking: Licht bewolkt
Zicht: meer dan 10 km
Bewolking: Licht bewolkt 2000 ft
EBLG 181350Z 18004KT 120V230 9999 FEW020 03/M02 Q1019 NOSIG
EBCV - Mons/Bergen
Gewijzigd: 18-01-2019 14:55
Grotendeels bewolkt  
Grotendeels bewolkt  
   Wind: ZZO 9.3 km/h
Wind: ZZO 9.3 km/h
Temperatuur: 3°C
Voelt als: 1°C
Dauwpunt: 2°C
Vochtigheid: 93%
Barometer: 1020 hPa
Bewolking: Grotendeels bewolkt
Zicht: 8 km
Bewolking: Grotendeels bewolkt 800 ft
EBCV 181355Z AUTO 15005KT 8000 BKN008/// 03/02 Q1020 GRN
EHBK - Maastricht
Gewijzigd: 18-01-2019 14:55
Nevel, Gedeeltelijk bewolkt  
Nevel, Gedeeltelijk bewolkt  
   Wind: varieert 3.7 km/h
Wind: varieert 3.7 km/h
Temperatuur: 1°C
Dauwpunt: 1°C
Vochtigheid: 100%
Barometer: 1019 hPa
Bewolking: Gedeeltelijk bewolkt
Zicht: 3 km
Bewolking: Gedeeltelijk bewolkt
EHBK 181355Z AUTO VRB02KT 3000 BR NSC 01/01 Q1019 BECMG 5000
ELLX - Luxemburg
Gewijzigd: 18-01-2019 14:50
Licht bewolkt  
Licht bewolkt  
   Wind: varieert 1.9 km/h
Wind: varieert 1.9 km/h
Temperatuur: 0°C
Dauwpunt: -4°C
Vochtigheid: 75%
Barometer: 1018 hPa
Bewolking: Licht bewolkt
Zicht: meer dan 10 km
Bewolking: Licht bewolkt 2500 ft
ELLX 181350Z VRB01KT 9999 FEW025 00/M04 Q1018 NOSIG
EBOS - Oostende
Gewijzigd: 18-01-2019 14:50
Licht bewolkt  
Licht bewolkt  
   Wind: Zuiden 14.8 km/h
Wind: Zuiden 14.8 km/h
Temperatuur: 5°C
Voelt als: 2°C
Dauwpunt: 2°C
Vochtigheid: 81%
Barometer: 1019 hPa
Bewolking: Licht bewolkt
Zicht: meer dan 10 km
Bewolking: Licht bewolkt 1200 ft
EBOS 181350Z 18008KT 9999 FEW012 05/02 Q1019 NOSIG

Script ontwikkeld door  Saratoga-weather.org Aangepast voor de template door  Weerstation Leuven

U vindt ons ook hier:

Het Weer Aktueel

UK Metoffice

European Weather Network

Weather Underground

AWEKAS



Lekker winkelen zonder zorgen - Gratis verzending en retour